Time;durP1;ratioP1;P1;durP2;ratioP2;P2;SDS_P1;SDS_P2;PMS_P1;PMS_P2;Temp;Humidity;BMP_temperature;BMP_pressure;BME280_temperature;BME280_humidity;BME280_pressure;Samples;Min_cycle;Max_cycle;Signal;HPM_P1;HPM_P2
2021/08/26 00:11:25;;;;;;;9.87;8.97;;;13.80;99.90;;;;;;5199299;22;20736;-96
2021/08/26 00:13:56;;;;;;;9.53;8.73;;;13.80;99.90;;;;;;5082012;28;21237;-96
2021/08/26 00:16:25;;;;;;;10.50;9.50;;;13.70;99.90;;;;;;5100815;28;20651;-95
2021/08/26 00:18:55;;;;;;;10.00;9.07;;;13.70;99.90;;;;;;5088974;28;20628;-95
2021/08/26 00:21:27;;;;;;;11.27;10.20;;;13.70;99.90;;;;;;5133732;27;20674;-95
2021/08/26 00:23:57;;;;;;;10.27;9.37;;;13.60;99.90;;;;;;5122717;28;20635;-96
2021/08/26 00:26:25;;;;;;;11.63;9.90;;;13.60;99.90;;;;;;5138214;28;20742;-95
2021/08/26 00:28:52;;;;;;;10.13;9.33;;;13.50;99.90;;;;;;5137287;28;20619;-95
2021/08/26 00:31:21;;;;;;;11.43;10.33;;;13.60;99.90;;;;;;5115800;28;20682;-95
2021/08/26 00:33:50;;;;;;;10.47;8.53;;;13.60;99.90;;;;;;5137761;28;20639;-95
2021/08/26 00:39:04;;;;;;;9.60;8.70;;;13.50;99.90;;;;;;5101165;28;20619;-95
2021/08/26 00:41:45;;;;;;;11.17;9.50;;;13.40;99.90;;;;;;5105530;28;20663;-96
2021/08/26 00:46:54;;;;;;;11.27;10.17;;;13.40;99.90;;;;;;5104482;28;20644;-94
2021/08/26 00:49:23;;;;;;;9.83;8.83;;;13.20;99.90;;;;;;5105049;28;20627;-95
2021/08/26 00:52:10;;;;;;;12.30;9.27;;;13.20;99.90;;;;;;5115722;27;20620;-95
2021/08/26 00:54:39;;;;;;;9.83;8.83;;;13.20;99.90;;;;;;5101955;28;20695;-95
2021/08/26 00:57:07;;;;;;;9.87;8.97;;;13.10;99.90;;;;;;5100880;28;20652;-95
2021/08/26 00:59:35;;;;;;;10.53;9.43;;;13.00;99.90;;;;;;5100520;28;20681;-95
2021/08/26 01:02:10;;;;;;;9.90;8.90;;;13.00;99.90;;;;;;5109943;28;20756;-96
2021/08/26 01:07:40;;;;;;;10.93;9.83;;;12.90;99.90;;;;;;5105169;28;20647;-95
2021/08/26 01:10:10;;;;;;;9.87;8.87;;;12.80;99.90;;;;;;5092329;28;20640;-95
2021/08/26 01:12:40;;;;;;;9.63;8.73;;;12.70;99.90;;;;;;5105332;28;20637;-95
2021/08/26 01:15:09;;;;;;;10.07;9.17;;;12.70;99.90;;;;;;5099832;28;20694;-93
2021/08/26 01:17:36;;;;;;;10.93;9.93;;;12.60;99.90;;;;;;5098080;28;20663;-95
2021/08/26 01:20:07;;;;;;;11.10;10.10;;;12.50;99.90;;;;;;5096999;28;21002;-96
2021/08/26 01:22:36;;;;;;;10.70;9.73;;;12.50;99.90;;;;;;5089505;28;20651;-93
2021/08/26 01:25:06;;;;;;;10.93;10.07;;;12.50;99.90;;;;;;5091593;28;21132;-93
2021/08/26 01:27:40;;;;;;;10.33;9.33;;;12.50;99.90;;;;;;5098416;28;20666;-93
2021/08/26 01:30:10;;;;;;;11.10;10.10;;;12.50;99.90;;;;;;5097403;28;20643;-92
2021/08/26 01:32:39;;;;;;;10.97;10.00;;;12.40;99.90;;;;;;5093079;28;20628;-94
2021/08/26 01:35:08;;;;;;;10.43;9.20;;;12.40;99.90;;;;;;5111690;28;20646;-95
2021/08/26 01:37:38;;;;;;;11.10;10.10;;;12.30;99.90;;;;;;5112419;28;20668;-94
2021/08/26 01:40:06;;;;;;;10.73;9.83;;;12.30;99.90;;;;;;5098437;28;20658;-93
2021/08/26 01:42:40;;;;;;;9.97;9.27;;;12.30;99.90;;;;;;5106548;28;20853;-94
2021/08/26 01:45:10;;;;;;;10.40;9.53;;;12.20;99.90;;;;;;5108161;28;20638;-94
2021/08/26 01:59:33;;;;;;;11.83;10.73;;;12.10;99.90;;;;;;5096885;28;20659;-96
2021/08/26 02:02:40;;;;;;;11.27;10.10;;;12.10;99.90;;;;;;5114699;28;20730;-95
2021/08/26 02:13:36;;;;;;;11.00;10.10;;;12.00;99.90;;;;;;5070314;28;20656;-96
2021/08/26 02:16:06;;;;;;;12.53;11.40;;;12.00;99.90;;;;;;5056079;28;20616;-94
2021/08/26 02:18:33;;;;;;;10.10;9.10;;;12.00;99.90;;;;;;5071855;28;20629;-93
2021/08/26 02:21:04;;;;;;;11.70;10.60;;;12.00;99.90;;;;;;5072156;28;21027;-93
2021/08/26 02:23:39;;;;;;;11.27;10.47;;;12.00;99.90;;;;;;5054470;28;20653;-94
2021/08/26 02:26:07;;;;;;;11.20;10.27;;;11.90;99.90;;;;;;5071952;28;20711;-95
2021/08/26 02:28:41;;;;;;;10.90;10.07;;;11.80;99.90;;;;;;5073561;28;20644;-94
2021/08/26 02:31:10;;;;;;;11.73;10.63;;;11.70;99.90;;;;;;5057029;28;20698;-95
2021/08/26 02:33:38;;;;;;;11.50;10.20;;;11.80;99.90;;;;;;5075119;28;20619;-96
2021/08/26 02:36:06;;;;;;;12.37;11.27;;;11.80;99.90;;;;;;5075216;28;20636;-94
2021/08/26 02:38:35;;;;;;;11.30;10.27;;;11.80;99.90;;;;;;5071217;28;21239;-93
2021/08/26 02:41:02;;;;;;;12.40;11.30;;;11.80;99.90;;;;;;5070483;28;20668;-95
2021/08/26 02:43:30;;;;;;;11.90;10.90;;;11.70;99.90;;;;;;5071138;28;20678;-93
2021/08/26 02:45:57;;;;;;;13.10;12.00;;;11.70;99.90;;;;;;5070783;28;20797;-93
2021/08/26 02:48:26;;;;;;;11.73;10.80;;;11.70;99.90;;;;;;5072677;28;20629;-94
2021/08/26 02:50:56;;;;;;;12.53;11.33;;;11.60;99.90;;;;;;5087757;28;21095;-95
2021/08/26 02:53:24;;;;;;;11.70;10.70;;;11.60;99.90;;;;;;5082233;28;21058;-95
2021/08/26 02:55:54;;;;;;;13.10;11.77;;;11.60;99.90;;;;;;5085933;28;20700;-96
2021/08/26 02:58:21;;;;;;;11.93;10.83;;;11.60;99.90;;;;;;5072520;28;20746;-94
2021/08/26 03:00:49;;;;;;;12.87;11.67;;;11.60;99.90;;;;;;5074965;28;21227;-94
2021/08/26 03:03:17;;;;;;;11.80;10.80;;;11.60;99.90;;;;;;5065706;28;21279;-94
2021/08/26 03:05:46;;;;;;;13.57;11.03;;;11.70;99.90;;;;;;5070241;28;20647;-95
2021/08/26 03:08:15;;;;;;;11.40;10.40;;;11.70;99.90;;;;;;5068426;28;20639;-94
2021/08/26 03:10:43;;;;;;;11.63;10.67;;;11.70;99.90;;;;;;5071341;28;20639;-95
2021/08/26 03:13:11;;;;;;;10.80;9.90;;;11.80;99.90;;;;;;5083662;28;20640;-94
2021/08/26 03:15:38;;;;;;;12.57;11.57;;;11.80;99.90;;;;;;5094052;28;20617;-95
2021/08/26 03:18:10;;;;;;;12.23;11.23;;;11.90;99.90;;;;;;5089114;28;20637;-96
2021/08/26 03:20:40;;;;;;;11.93;10.90;;;11.90;99.90;;;;;;5085409;28;20636;-95
2021/08/26 03:23:14;;;;;;;12.10;11.10;;;11.90;99.90;;;;;;5085397;28;20665;-96
2021/08/26 03:25:41;;;;;;;12.03;10.93;;;12.00;99.90;;;;;;5073210;28;20717;-95
2021/08/26 03:28:11;;;;;;;12.07;10.93;;;12.00;99.90;;;;;;5088068;28;20617;-95
2021/08/26 03:33:43;;;;;;;13.23;11.93;;;12.10;99.90;;;;;;5084316;28;20637;-96
2021/08/26 03:36:12;;;;;;;12.17;11.00;;;12.20;99.90;;;;;;5084233;28;20688;-96
2021/08/26 03:38:58;;;;;;;12.33;11.30;;;12.10;99.90;;;;;;5084892;28;20633;-95
2021/08/26 03:41:26;;;;;;;12.73;11.63;;;12.20;99.90;;;;;;5081937;28;20712;-96
2021/08/26 03:43:58;;;;;;;14.50;11.07;;;12.10;99.90;;;;;;5082263;28;20673;-96
2021/08/26 03:46:26;;;;;;;12.00;11.00;;;12.20;99.90;;;;;;5067783;28;20625;-96
2021/08/26 03:49:01;;;;;;;12.60;11.50;;;12.30;99.90;;;;;;5077567;28;20713;-96
2021/08/26 03:51:29;;;;;;;12.07;10.93;;;12.30;99.90;;;;;;5074569;28;20688;-95
2021/08/26 03:53:57;;;;;;;13.70;12.60;;;12.30;99.90;;;;;;5073809;28;20661;-96
2021/08/26 03:56:24;;;;;;;12.63;11.57;;;12.30;99.90;;;;;;5069148;28;20637;-94
2021/08/26 03:58:53;;;;;;;11.20;10.30;;;12.30;99.90;;;;;;5073601;28;20637;-95
2021/08/26 04:01:21;;;;;;;11.60;10.10;;;12.40;99.90;;;;;;5067572;28;20668;-94
2021/08/26 04:03:48;;;;;;;12.40;11.20;;;12.40;99.90;;;;;;5078428;28;20709;-94
2021/08/26 04:06:15;;;;;;;12.20;11.07;;;12.40;99.90;;;;;;5070647;28;20714;-95
2021/08/26 04:08:42;;;;;;;12.03;10.93;;;12.40;99.90;;;;;;5070867;28;20637;-95
2021/08/26 04:11:10;;;;;;;10.73;9.80;;;12.40;99.90;;;;;;5068950;28;20718;-96
2021/08/26 04:13:39;;;;;;;12.10;11.00;;;12.40;99.90;;;;;;5071629;28;20625;-96
2021/08/26 04:16:06;;;;;;;12.47;11.37;;;12.40;99.90;;;;;;5070075;28;21007;-94
2021/08/26 04:18:33;;;;;;;12.07;10.90;;;12.40;99.90;;;;;;5074125;28;20660;-95
2021/08/26 04:20:59;;;;;;;14.20;12.70;;;12.40;99.90;;;;;;5068823;28;20731;-95
2021/08/26 04:23:27;;;;;;;12.60;11.00;;;12.40;99.90;;;;;;5069379;28;20653;-95
2021/08/26 04:25:53;;;;;;;12.10;11.00;;;12.40;99.90;;;;;;5077609;28;20628;-96
2021/08/26 04:28:40;;;;;;;11.70;10.60;;;12.50;99.90;;;;;;5073450;28;21167;-96
2021/08/26 04:31:08;;;;;;;11.67;10.67;;;12.50;99.90;;;;;;5078109;28;20732;-95
2021/08/26 04:33:43;;;;;;;10.93;10.03;;;12.50;99.90;;;;;;5080547;28;20667;-95
2021/08/26 04:36:11;;;;;;;11.20;10.20;;;12.50;99.90;;;;;;5077212;28;20636;-96
2021/08/26 04:38:39;;;;;;;11.23;10.23;;;12.60;99.90;;;;;;5075967;28;20724;-96
2021/08/26 04:42:01;;;;;;;10.90;10.07;;;12.60;99.90;;;;;;5079338;28;20629;-96
2021/08/26 04:44:31;;;;;;;12.07;11.00;;;12.60;99.90;;;;;;5061324;28;20637;-95
2021/08/26 04:46:58;;;;;;;10.87;9.87;;;12.60;99.90;;;;;;5077711;28;20672;-96
2021/08/26 04:49:26;;;;;;;10.60;9.67;;;12.50;99.90;;;;;;5076413;28;20629;-96
2021/08/26 04:51:54;;;;;;;11.30;10.37;;;12.60;99.90;;;;;;5087655;28;20691;-96
2021/08/26 04:54:34;;;;;;;12.20;11.13;;;12.60;99.90;;;;;;5082940;28;20621;-96
2021/08/26 04:57:01;;;;;;;11.57;10.57;;;12.60;99.90;;;;;;5055968;28;20639;-95
2021/08/26 04:59:29;;;;;;;11.80;10.80;;;12.60;99.90;;;;;;5069247;28;21425;-91
2021/08/26 05:01:56;;;;;;;11.73;10.63;;;12.70;99.90;;;;;;5077288;28;20729;-91
2021/08/26 05:04:24;;;;;;;11.90;10.80;;;12.70;99.90;;;;;;5087360;28;20633;-92
2021/08/26 05:06:51;;;;;;;11.40;10.30;;;12.80;99.90;;;;;;5073614;28;20662;-91
2021/08/26 05:09:17;;;;;;;11.10;10.10;;;12.70;99.90;;;;;;5069759;28;20641;-92
2021/08/26 05:11:47;;;;;;;11.60;10.70;;;12.80;99.90;;;;;;5070031;28;20653;-91
2021/08/26 05:14:14;;;;;;;13.47;12.30;;;12.80;99.90;;;;;;5067407;28;20712;-92
2021/08/26 05:16:42;;;;;;;12.33;11.23;;;12.80;99.90;;;;;;5067585;28;20609;-93
2021/08/26 05:19:10;;;;;;;11.23;10.33;;;12.80;99.90;;;;;;5066814;28;20661;-91
2021/08/26 05:21:37;;;;;;;11.47;10.53;;;12.90;99.90;;;;;;5071278;28;20656;-91
2021/08/26 05:24:05;;;;;;;11.83;10.70;;;13.00;99.90;;;;;;5068745;28;20640;-92
2021/08/26 05:26:32;;;;;;;12.10;11.10;;;13.00;99.90;;;;;;5052463;28;20622;-93
2021/08/26 05:28:58;;;;;;;11.97;10.87;;;13.00;99.90;;;;;;5072450;28;21344;-91
2021/08/26 05:31:25;;;;;;;12.43;11.33;;;13.10;99.90;;;;;;5072384;28;20637;-91
2021/08/26 05:33:54;;;;;;;11.63;10.63;;;13.10;99.90;;;;;;5071804;28;20632;-92
2021/08/26 05:36:21;;;;;;;13.50;11.23;;;13.10;99.90;;;;;;5056427;28;20617;-91
2021/08/26 05:38:48;;;;;;;12.90;11.53;;;13.10;99.90;;;;;;5070004;28;20656;-92
2021/08/26 05:41:15;;;;;;;11.03;10.13;;;13.10;99.90;;;;;;5067013;28;20640;-92
2021/08/26 05:43:42;;;;;;;11.60;10.40;;;13.20;99.90;;;;;;5069131;28;21028;-91
2021/08/26 05:46:09;;;;;;;11.33;10.40;;;13.30;99.90;;;;;;5068111;28;21176;-91
2021/08/26 05:48:36;;;;;;;11.20;10.10;;;13.50;99.90;;;;;;5070975;28;20653;-91
2021/08/26 05:51:05;;;;;;;12.50;11.20;;;13.40;99.90;;;;;;5066714;28;21203;-91
2021/08/26 05:53:32;;;;;;;11.37;10.37;;;13.50;99.90;;;;;;5074723;28;20980;-91
2021/08/26 05:55:59;;;;;;;11.43;10.43;;;13.60;99.90;;;;;;5073188;28;21214;-91
2021/08/26 05:58:26;;;;;;;11.27;10.17;;;13.60;99.90;;;;;;5070701;28;20990;-91
2021/08/26 06:00:55;;;;;;;10.60;9.60;;;13.60;99.90;;;;;;5066578;28;20957;-91
2021/08/26 06:03:22;;;;;;;11.53;10.37;;;13.50;99.90;;;;;;5074231;28;20690;-91
2021/08/26 06:05:48;;;;;;;10.60;9.60;;;13.60;99.90;;;;;;5071214;28;20629;-91
2021/08/26 06:08:17;;;;;;;11.77;10.57;;;13.60;99.90;;;;;;5055985;28;20628;-90
2021/08/26 06:10:44;;;;;;;11.00;9.60;;;13.60;99.90;;;;;;5069243;28;20629;-91
2021/08/26 06:13:10;;;;;;;9.87;8.97;;;13.70;99.90;;;;;;5071433;28;20636;-91
2021/08/26 06:15:37;;;;;;;10.70;9.80;;;13.80;99.90;;;;;;5069307;28;20629;-91
2021/08/26 06:18:04;;;;;;;10.50;9.60;;;13.80;99.90;;;;;;5067187;28;20643;-92
2021/08/26 06:20:31;;;;;;;11.47;10.13;;;13.80;99.90;;;;;;5065657;28;20655;-90
2021/08/26 06:22:58;;;;;;;11.63;10.53;;;13.70;99.90;;;;;;5068094;28;21255;-91
2021/08/26 06:25:26;;;;;;;11.20;10.30;;;13.80;99.90;;;;;;5050700;28;20625;-91
2021/08/26 06:27:56;;;;;;;11.50;10.30;;;13.80;99.90;;;;;;5067753;28;20609;-91
2021/08/26 06:30:23;;;;;;;10.93;10.00;;;13.80;99.90;;;;;;5051268;28;20714;-91
2021/08/26 06:32:52;;;;;;;11.80;10.60;;;13.90;99.90;;;;;;5052375;28;20633;-92
2021/08/26 06:35:19;;;;;;;12.30;10.93;;;13.80;99.90;;;;;;5067609;28;20628;-91
2021/08/26 06:37:46;;;;;;;11.10;10.10;;;13.80;99.90;;;;;;5049116;28;20702;-90
2021/08/26 06:40:14;;;;;;;11.63;10.50;;;13.70;99.90;;;;;;5064144;28;21011;-90
2021/08/26 06:42:45;;;;;;;15.10;11.80;;;13.80;99.90;;;;;;5051095;28;20683;-89
2021/08/26 06:45:12;;;;;;;11.23;10.13;;;13.80;99.90;;;;;;5069537;28;20620;-90
2021/08/26 06:47:39;;;;;;;12.30;11.20;;;13.80;99.90;;;;;;5068162;28;20578;-93
2021/08/26 06:50:07;;;;;;;10.27;9.27;;;13.80;99.90;;;;;;5066837;28;21297;-90
2021/08/26 06:52:33;;;;;;;11.40;10.40;;;13.80;99.90;;;;;;5065453;28;20651;-90
2021/08/26 06:55:00;;;;;;;11.27;10.17;;;13.90;99.90;;;;;;5048893;28;20879;-93
2021/08/26 06:57:28;;;;;;;10.73;9.90;;;13.90;99.90;;;;;;5062522;28;20650;-92
2021/08/26 06:59:56;;;;;;;11.07;10.07;;;13.90;99.90;;;;;;5071833;28;20660;-93
2021/08/26 07:02:23;;;;;;;11.80;10.67;;;13.90;99.90;;;;;;5048492;28;20649;-94
2021/08/26 07:05:06;;;;;;;11.17;10.13;;;13.90;99.90;;;;;;5083744;28;20629;-96
2021/08/26 07:19:04;;;;;;;11.83;10.60;;;14.10;99.90;;;;;;5111602;28;20959;-96
2021/08/26 07:21:33;;;;;;;11.70;10.60;;;14.10;99.90;;;;;;5113427;28;20667;-95
2021/08/26 07:30:27;;;;;;;11.90;9.90;;;14.30;99.90;;;;;;5097543;28;20620;-96
2021/08/26 07:35:54;;;;;;;11.03;10.03;;;14.40;99.90;;;;;;5104793;28;20636;-95
2021/08/26 07:38:21;;;;;;;10.50;9.50;;;14.40;99.90;;;;;;5094555;28;20628;-93
2021/08/26 07:40:49;;;;;;;11.10;10.00;;;14.40;99.90;;;;;;5098826;28;20623;-94
2021/08/26 07:43:17;;;;;;;12.50;10.10;;;14.50;99.90;;;;;;5096988;28;20751;-91
2021/08/26 07:45:45;;;;;;;11.40;10.30;;;14.60;99.90;;;;;;5095217;28;20979;-93
2021/08/26 07:48:12;;;;;;;12.47;9.73;;;14.70;99.90;;;;;;5096809;28;20631;-96
2021/08/26 07:50:39;;;;;;;11.60;10.50;;;14.70;99.90;;;;;;5082234;28;20636;-92
2021/08/26 07:53:08;;;;;;;10.70;9.70;;;14.70;99.90;;;;;;5093618;28;20624;-90
2021/08/26 07:55:35;;;;;;;12.37;10.43;;;14.80;99.90;;;;;;5091653;28;20647;-92
2021/08/26 07:58:02;;;;;;;11.03;10.00;;;14.80;99.90;;;;;;5084353;28;20632;-92
2021/08/26 08:00:31;;;;;;;14.37;10.87;;;14.80;99.90;;;;;;5093776;28;20614;-93
2021/08/26 08:02:57;;;;;;;13.40;12.03;;;14.90;99.90;;;;;;5094426;28;20648;-90
2021/08/26 08:05:24;;;;;;;15.43;9.90;;;14.90;99.90;;;;;;5078525;28;20724;-90
2021/08/26 08:07:51;;;;;;;12.23;10.97;;;15.00;99.90;;;;;;5102956;28;20612;-91
2021/08/26 08:10:19;;;;;;;13.27;10.70;;;15.00;99.90;;;;;;5100767;28;20624;-89
2021/08/26 08:12:46;;;;;;;13.37;12.07;;;15.00;99.90;;;;;;5097523;28;20628;-90
2021/08/26 08:15:13;;;;;;;12.13;10.40;;;15.20;99.90;;;;;;5107058;28;20655;-90
2021/08/26 08:17:40;;;;;;;17.13;11.57;;;15.40;99.90;;;;;;5087524;28;20986;-91
2021/08/26 08:20:09;;;;;;;13.53;12.03;;;15.40;99.90;;;;;;5088732;28;20986;-92
2021/08/26 08:22:37;;;;;;;12.13;11.00;;;15.30;99.90;;;;;;5096233;28;20756;-92
2021/08/26 08:25:04;;;;;;;12.33;11.23;;;15.40;99.90;;;;;;5114504;28;20992;-92
2021/08/26 08:27:32;;;;;;;13.53;10.80;;;15.60;99.90;;;;;;5101683;28;20653;-90
2021/08/26 08:30:00;;;;;;;12.57;11.07;;;15.70;99.90;;;;;;5106794;28;20619;-92
2021/08/26 08:32:26;;;;;;;13.83;12.57;;;15.60;99.90;;;;;;5101943;28;20707;-95
2021/08/26 08:34:54;;;;;;;12.87;11.70;;;15.50;99.90;;;;;;5102686;28;20648;-94
2021/08/26 08:37:21;;;;;;;15.10;13.50;;;15.40;99.90;;;;;;5100727;28;20619;-94
2021/08/26 08:39:48;;;;;;;14.93;13.60;;;15.30;99.90;;;;;;5103934;28;20635;-95
2021/08/26 08:42:21;;;;;;;14.53;13.13;;;15.10;99.90;;;;;;5094726;28;20678;-95
2021/08/26 08:44:50;;;;;;;14.13;12.83;;;15.10;99.90;;;;;;5099626;28;20712;-95
2021/08/26 08:47:18;;;;;;;15.20;13.70;;;15.20;99.90;;;;;;5094516;28;21109;-94
2021/08/26 08:49:50;;;;;;;14.83;13.40;;;15.10;99.90;;;;;;5096111;28;20651;-95
2021/08/26 08:58:06;;;;;;;15.87;14.47;;;15.00;99.90;;;;;;5104162;28;20640;-94
2021/08/26 09:00:39;;;;;;;17.70;16.10;;;15.00;99.90;;;;;;5112666;28;20670;-94
2021/08/26 09:03:12;;;;;;;17.30;15.80;;;15.10;99.90;;;;;;5108968;28;20755;-95
2021/08/26 09:08:36;;;;;;;16.80;15.00;;;15.20;99.90;;;;;;5093056;28;20636;-94
2021/08/26 09:11:14;;;;;;;16.60;15.07;;;15.20;99.90;;;;;;5091644;28;21155;-93
2021/08/26 09:13:41;;;;;;;16.77;15.37;;;15.10;99.90;;;;;;5090869;28;20646;-93
2021/08/26 09:16:11;;;;;;;16.93;15.43;;;15.20;99.90;;;;;;5093945;28;20623;-93
2021/08/26 09:18:38;;;;;;;16.70;15.10;;;15.20;99.90;;;;;;5097350;28;20642;-92
2021/08/26 09:21:08;;;;;;;17.50;16.00;;;15.40;99.90;;;;;;5104870;28;20673;-92
2021/08/26 09:23:50;;;;;;;17.47;15.97;;;15.40;99.90;;;;;;5089265;28;20656;-92
2021/08/26 09:26:21;;;;;;;18.23;14.83;;;15.50;99.90;;;;;;5088521;28;20984;-93
2021/08/26 09:28:48;;;;;;;16.37;15.00;;;15.50;99.90;;;;;;5098480;28;21209;-93
2021/08/26 09:31:24;;;;;;;18.13;16.23;;;15.20;99.90;;;;;;5097038;28;20626;-93
2021/08/26 09:33:56;;;;;;;17.50;16.17;;;15.20;99.90;;;;;;5099508;28;21057;-93
2021/08/26 09:36:30;;;;;;;16.53;15.03;;;15.10;99.90;;;;;;5094037;28;21273;-93
2021/08/26 09:39:01;;;;;;;18.43;16.83;;;15.00;99.90;;;;;;5060216;28;20624;-94
2021/08/26 09:41:50;;;;;;;18.80;17.00;;;15.10;99.90;;;;;;5094232;28;20630;-94
2021/08/26 09:44:19;;;;;;;19.53;17.90;;;15.00;99.90;;;;;;5095090;28;20683;-92
2021/08/26 09:46:50;;;;;;;17.63;16.13;;;15.10;99.90;;;;;;5089823;28;21541;-93
2021/08/26 09:49:20;;;;;;;18.40;16.90;;;15.10;99.90;;;;;;5082853;28;20652;-93
2021/08/26 09:52:04;;;;;;;19.03;17.53;;;15.00;99.90;;;;;;5095305;28;20644;-93
2021/08/26 09:54:36;;;;;;;18.90;17.40;;;15.20;99.90;;;;;;5068947;28;20648;-93
2021/08/26 09:57:05;;;;;;;18.73;17.03;;;15.10;99.90;;;;;;5088643;28;20958;-92
2021/08/26 09:59:49;;;;;;;14.30;13.20;;;15.10;99.90;;;;;;5097581;28;20634;-93
2021/08/26 10:02:19;;;;;;;17.83;16.27;;;15.00;99.90;;;;;;5090744;28;20627;-92
2021/08/26 10:04:47;;;;;;;17.67;16.10;;;15.20;99.90;;;;;;5078211;28;20722;-93
2021/08/26 10:07:15;;;;;;;15.87;14.53;;;15.40;99.90;;;;;;5073835;28;20616;-93
2021/08/26 10:09:44;;;;;;;14.37;13.20;;;15.50;99.90;;;;;;5095141;28;21201;-92
2021/08/26 10:12:12;;;;;;;12.73;11.70;;;15.70;99.90;;;;;;5094488;28;20628;-93
2021/08/26 10:14:40;;;;;;;12.77;11.80;;;15.70;99.90;;;;;;5099566;28;20654;-93
2021/08/26 10:17:09;;;;;;;13.43;12.33;;;15.50;99.90;;;;;;5100878;28;20740;-92
2021/08/26 10:19:52;;;;;;;12.13;11.27;;;15.50;99.90;;;;;;5091677;28;21051;-94
2021/08/26 10:22:20;;;;;;;11.43;10.63;;;15.40;99.90;;;;;;5094170;28;20676;-91
2021/08/26 10:24:48;;;;;;;11.60;10.70;;;15.20;99.90;;;;;;5077509;28;20668;-91
2021/08/26 10:27:18;;;;;;;10.80;9.90;;;15.30;99.90;;;;;;5074638;28;20689;-93
2021/08/26 10:29:46;;;;;;;9.00;8.30;;;15.20;99.90;;;;;;5099196;28;20637;-91
2021/08/26 10:32:18;;;;;;;9.13;8.53;;;15.10;99.90;;;;;;5096760;28;21185;-93
2021/08/26 10:35:05;;;;;;;10.30;9.50;;;15.10;99.90;;;;;;5113311;28;20698;-91
2021/08/26 10:37:44;;;;;;;7.90;7.40;;;15.10;99.90;;;;;;5105209;28;20614;-91
2021/08/26 10:40:34;;;;;;;7.83;7.23;;;15.00;99.90;;;;;;5095150;28;20660;-95
2021/08/26 10:43:02;;;;;;;8.07;7.47;;;14.90;99.90;;;;;;5088752;28;20623;-94
2021/08/26 10:45:31;;;;;;;6.73;6.33;;;14.90;99.90;;;;;;5045073;28;20647;-93
2021/08/26 10:48:17;;;;;;;7.00;6.50;;;14.90;99.90;;;;;;5012661;28;20628;-91
2021/08/26 10:51:16;;;;;;;6.33;5.93;;;15.20;99.90;;;;;;5011354;28;21048;-92
2021/08/26 10:53:45;;;;;;;6.00;5.50;;;15.50;99.90;;;;;;5011930;28;20667;-92
2021/08/26 10:56:21;;;;;;;6.20;5.80;;;15.90;99.90;;;;;;5011536;28;21230;-92
2021/08/26 10:58:53;;;;;;;5.17;4.77;;;16.10;99.90;;;;;;4992432;28;20627;-92
2021/08/26 11:01:42;;;;;;;5.63;5.13;;;16.40;99.90;;;;;;5015355;28;20635;-92
2021/08/26 11:04:20;;;;;;;5.27;4.97;;;16.30;99.90;;;;;;5011561;28;20684;-92
2021/08/26 11:06:51;;;;;;;4.67;4.37;;;16.60;99.90;;;;;;5006339;28;20643;-92
2021/08/26 11:09:32;;;;;;;5.03;4.63;;;16.80;99.90;;;;;;5012537;28;20730;-91
2021/08/26 11:12:04;;;;;;;5.30;4.90;;;16.90;99.90;;;;;;5010864;28;20702;-90
2021/08/26 11:14:33;;;;;;;4.70;4.30;;;16.90;99.90;;;;;;5011079;28;20651;-92
2021/08/26 11:17:08;;;;;;;6.03;5.60;;;17.00;99.90;;;;;;5011027;28;21022;-92
2021/08/26 11:19:37;;;;;;;5.00;4.60;;;17.20;99.90;;;;;;5008373;28;20619;-93
2021/08/26 11:22:09;;;;;;;5.30;4.83;;;17.90;99.90;;;;;;5007269;28;20643;-91
2021/08/26 11:24:56;;;;;;;4.40;4.10;;;18.10;99.90;;;;;;5011937;28;20751;-91
2021/08/26 11:27:32;;;;;;;4.70;4.30;;;18.50;99.90;;;;;;5007814;28;20624;-91
2021/08/26 11:29:59;;;;;;;5.43;4.20;;;18.80;99.90;;;;;;5011565;28;20698;-92
2021/08/26 11:32:28;;;;;;;4.90;4.50;;;18.60;99.90;;;;;;5001756;28;20640;-91
2021/08/26 11:35:02;;;;;;;5.20;4.00;;;18.10;99.90;;;;;;5011135;28;21085;-91
2021/08/26 11:37:34;;;;;;;4.47;4.07;;;18.00;99.90;;;;;;4988655;28;20629;-92
2021/08/26 11:40:05;;;;;;;4.90;4.40;;;18.40;99.90;;;;;;5011181;28;20653;-93
2021/08/26 11:42:36;;;;;;;5.10;4.60;;;18.10;99.90;;;;;;5011941;28;20725;-92
2021/08/26 11:45:10;;;;;;;6.73;5.00;;;18.10;99.90;;;;;;4988167;28;20705;-91
2021/08/26 11:47:40;;;;;;;5.70;5.20;;;18.00;99.90;;;;;;4990401;28;20662;-91
2021/08/26 11:50:15;;;;;;;7.13;6.50;;;17.80;99.90;;;;;;4990070;28;20708;-91
2021/08/26 11:52:45;;;;;;;7.13;6.43;;;17.60;99.90;;;;;;5020096;28;20622;-93
2021/08/26 11:55:13;;;;;;;7.70;7.00;;;17.50;99.90;;;;;;5008679;28;20755;-93
2021/08/26 11:57:39;;;;;;;9.67;6.67;;;17.50;99.90;;;;;;5010570;28;21039;-93
2021/08/26 12:00:17;;;;;;;7.20;6.20;;;17.40;99.90;;;;;;5007702;28;20960;-92
2021/08/26 12:02:51;;;;;;;7.60;6.80;;;17.40;99.90;;;;;;5003503;28;20640;-94
2021/08/26 12:05:18;;;;;;;8.13;6.43;;;17.10;99.90;;;;;;5007029;28;20674;-93
2021/08/26 12:07:48;;;;;;;7.73;6.33;;;17.20;99.90;;;;;;5009416;28;21160;-92
2021/08/26 12:10:18;;;;;;;6.37;5.77;;;17.40;99.90;;;;;;5007095;28;20651;-92
2021/08/26 12:12:54;;;;;;;7.77;7.07;;;17.10;99.90;;;;;;5011973;28;20640;-92
2021/08/26 12:15:29;;;;;;;9.30;7.33;;;17.00;99.90;;;;;;5009625;28;20657;-93
2021/08/26 12:18:02;;;;;;;7.40;6.70;;;17.00;99.90;;;;;;5009115;28;20685;-92
2021/08/26 12:20:30;;;;;;;6.87;6.27;;;17.10;99.90;;;;;;5014592;28;20679;-92
2021/08/26 12:22:59;;;;;;;7.50;6.90;;;16.90;99.90;;;;;;5005869;28;20642;-93
2021/08/26 12:25:29;;;;;;;7.40;6.80;;;17.20;99.90;;;;;;5009361;28;20683;-91
2021/08/26 12:27:59;;;;;;;7.87;7.17;;;17.30;99.90;;;;;;5007009;28;21024;-91
2021/08/26 12:30:37;;;;;;;7.17;6.47;;;17.30;99.90;;;;;;5007272;28;20632;-92
2021/08/26 12:33:08;;;;;;;6.63;5.93;;;17.20;99.90;;;;;;5010326;28;20646;-92
2021/08/26 12:35:44;;;;;;;7.60;6.90;;;17.50;99.90;;;;;;5004978;28;21246;-91
2021/08/26 12:38:14;;;;;;;7.90;7.20;;;17.60;99.90;;;;;;5003596;28;20616;-92
2021/08/26 12:40:54;;;;;;;6.83;6.23;;;17.90;99.90;;;;;;4990798;28;20735;-92
2021/08/26 12:43:24;;;;;;;8.03;7.30;;;17.90;99.90;;;;;;5007171;28;20961;-92
2021/08/26 12:46:03;;;;;;;7.03;6.33;;;17.80;99.90;;;;;;5011379;28;20655;-92
2021/08/26 12:48:36;;;;;;;7.77;7.00;;;17.90;99.90;;;;;;5004802;28;20769;-92
2021/08/26 12:51:14;;;;;;;6.70;6.23;;;18.00;99.90;;;;;;4988372;28;20631;-92
2021/08/26 12:53:46;;;;;;;6.13;5.63;;;18.10;99.90;;;;;;5014524;28;20663;-93
2021/08/26 12:56:14;;;;;;;6.17;5.67;;;18.10;99.90;;;;;;5010725;28;20638;-92
2021/08/26 12:58:52;;;;;;;8.57;6.43;;;18.10;99.90;;;;;;5007875;28;20647;-93
2021/08/26 13:01:22;;;;;;;6.23;5.63;;;18.30;99.90;;;;;;5016287;28;21143;-95
2021/08/26 13:03:50;;;;;;;6.90;6.30;;;18.60;99.90;;;;;;4998798;28;21007;-94
2021/08/26 13:06:36;;;;;;;8.80;6.87;;;18.90;99.90;;;;;;5024968;28;20608;-96
2021/08/26 13:09:08;;;;;;;5.80;5.07;;;19.10;99.90;;;;;;5038327;28;20738;-94
2021/08/26 13:11:38;;;;;;;6.60;5.23;;;19.20;99.90;;;;;;5026514;28;20627;-95
2021/08/26 13:14:09;;;;;;;6.70;4.70;;;20.10;99.90;;;;;;5033401;28;20650;-94
2021/08/26 13:16:36;;;;;;;6.17;5.30;;;21.50;99.90;;;;;;5029000;28;20652;-95
2021/08/26 13:19:05;;;;;;;6.53;5.60;;;20.90;99.90;;;;;;5026188;28;20619;-96
2021/08/26 13:21:33;;;;;;;6.07;5.57;;;21.60;99.90;;;;;;5039420;28;20634;-96
2021/08/26 13:24:01;;;;;;;5.97;5.43;;;22.40;99.90;;;;;;5025676;28;20712;-96
2021/08/26 13:26:29;;;;;;;6.77;4.80;;;22.70;99.90;;;;;;5019036;28;20734;-94
2021/08/26 13:28:56;;;;;;;6.23;5.63;;;22.50;99.90;;;;;;5018483;28;20649;-94
2021/08/26 13:31:25;;;;;;;9.97;6.30;;;22.10;99.90;;;;;;5015729;28;20635;-94
2021/08/26 13:33:52;;;;;;;5.60;5.20;;;23.00;99.90;;;;;;5018017;28;20658;-95
2021/08/26 13:36:19;;;;;;;8.67;5.40;;;23.10;99.90;;;;;;5015893;28;20856;-95
2021/08/26 13:38:46;;;;;;;5.47;4.67;;;23.20;99.90;;;;;;5017663;28;20635;-95
2021/08/26 13:41:14;;;;;;;6.13;5.53;;;23.00;99.90;;;;;;5010361;28;20632;-95
2021/08/26 13:43:43;;;;;;;5.60;5.10;;;23.40;99.90;;;;;;5001872;28;20666;-95
2021/08/26 13:46:12;;;;;;;6.80;5.77;;;23.30;99.60;;;;;;5021472;28;20697;-95
2021/08/26 13:48:39;;;;;;;6.23;5.63;;;22.20;99.90;;;;;;5023323;28;20654;-93
2021/08/26 13:51:06;;;;;;;7.00;5.80;;;22.80;99.90;;;;;;5018925;28;20635;-94
2021/08/26 13:53:33;;;;;;;5.07;4.60;;;23.30;98.00;;;;;;5026326;28;20653;-95
2021/08/26 13:56:00;;;;;;;5.37;4.80;;;23.80;97.40;;;;;;5019737;28;20635;-94
2021/08/26 13:58:27;;;;;;;6.30;5.73;;;23.80;97.70;;;;;;5020002;28;20580;-93
2021/08/26 14:00:56;;;;;;;10.03;5.50;;;23.00;98.70;;;;;;5025512;28;20633;-96